createdAt,value
2022-11-26T00:02:25.470Z,53.08
2022-11-26T00:04:54.937Z,53.22
2022-11-26T00:07:29.717Z,52.63
2022-11-26T00:09:58.987Z,51.30
2022-11-26T00:12:31.805Z,53.25
2022-11-26T00:15:03.346Z,51.15
2022-11-26T00:17:31.825Z,54.40
2022-11-26T00:19:59.670Z,51.78
2022-11-26T00:22:30.581Z,52.45
2022-11-26T00:24:58.953Z,55.38
2022-11-26T00:27:28.841Z,54.40
2022-11-26T00:29:57.114Z,53.00
2022-11-26T00:32:26.699Z,55.33
2022-11-26T00:34:54.737Z,52.33
2022-11-26T00:37:31.586Z,53.83
2022-11-26T00:39:59.915Z,55.50
2022-11-26T00:42:28.205Z,55.78
2022-11-26T00:44:56.300Z,55.65
2022-11-26T00:47:24.859Z,57.88
2022-11-26T00:49:52.923Z,58.65
2022-11-26T00:52:39.230Z,59.88
2022-11-26T00:55:13.926Z,60.60
2022-11-26T00:57:42.521Z,53.80
2022-11-26T01:00:25.974Z,51.00
2022-11-26T01:02:54.462Z,50.90
2022-11-26T01:05:23.772Z,51.53
2022-11-26T01:07:53.763Z,51.03
2022-11-26T01:10:24.660Z,53.38
2022-11-26T01:12:53.327Z,50.53
2022-11-26T01:15:24.010Z,54.30
2022-11-26T01:17:53.346Z,56.55
2022-11-26T01:20:25.382Z,54.92
2022-11-26T01:22:54.989Z,54.38
2022-11-26T01:25:24.610Z,55.17
2022-11-26T01:27:54.185Z,56.60
2022-11-26T01:30:31.050Z,61.28
2022-11-26T01:33:02.437Z,55.83
2022-11-26T01:35:30.391Z,58.40
2022-11-26T01:37:58.812Z,60.38
2022-11-26T01:40:26.615Z,58.35
2022-11-26T01:43:06.280Z,60.35
2022-11-26T01:45:34.331Z,62.50
2022-11-26T01:48:03.252Z,65.47
2022-11-26T01:50:37.044Z,65.55
2022-11-26T01:53:10.837Z,70.53
2022-11-26T01:55:45.077Z,67.78
2022-11-26T01:58:18.087Z,70.68
2022-11-26T02:00:46.934Z,69.93
2022-11-26T02:03:15.312Z,73.47
2022-11-26T02:06:02.152Z,76.22
2022-11-26T02:08:32.319Z,70.50
2022-11-26T02:11:00.151Z,72.53
2022-11-26T02:13:28.892Z,69.13
2022-11-26T02:16:18.570Z,70.07
2022-11-26T02:18:58.564Z,73.13
2022-11-26T02:21:28.060Z,76.25
2022-11-26T02:24:15.286Z,75.25
2022-11-26T02:27:04.989Z,74.90
2022-11-26T02:30:11.823Z,76.50
2022-11-26T02:32:42.881Z,69.13
2022-11-26T02:35:19.022Z,73.70
2022-11-26T02:37:51.856Z,72.30
2022-11-26T02:42:48.450Z,64.25
2022-11-26T02:45:20.012Z,67.07
2022-11-26T02:47:49.789Z,70.63
2022-11-26T02:50:23.036Z,69.15
2022-11-26T02:52:51.669Z,70.22
2022-11-26T02:55:23.470Z,70.07
2022-11-26T02:57:52.223Z,67.13
2022-11-26T03:00:21.106Z,67.63
2022-11-26T03:02:53.822Z,66.90
2022-11-26T03:05:22.247Z,68.72
2022-11-26T03:07:52.257Z,64.78
2022-11-26T03:10:25.893Z,66.07
2022-11-26T03:12:53.996Z,66.43
2022-11-26T03:15:22.350Z,67.05
2022-11-26T03:17:50.826Z,69.00
2022-11-26T03:20:19.543Z,66.50
2022-11-26T03:22:47.499Z,66.50
2022-11-26T03:25:16.059Z,66.82
2022-11-26T03:27:43.760Z,65.63
2022-11-26T03:30:12.378Z,66.30
2022-11-26T03:32:40.426Z,65.47
2022-11-26T03:35:08.916Z,68.20
2022-11-26T03:37:37.435Z,68.50
2022-11-26T03:40:06.339Z,70.00
2022-11-26T03:42:34.182Z,71.15
2022-11-26T03:45:02.737Z,71.15
2022-11-26T03:47:30.435Z,71.63
2022-11-26T03:49:58.557Z,71.45
2022-11-26T03:52:26.167Z,70.82
2022-11-26T03:54:54.260Z,69.35
2022-11-26T03:57:22.986Z,65.13
2022-11-26T03:59:51.310Z,60.67
2022-11-26T04:02:18.976Z,61.60
2022-11-26T04:04:47.488Z,61.70
2022-11-26T04:07:15.857Z,59.97
2022-11-26T04:09:44.499Z,57.03
2022-11-26T04:12:12.291Z,57.75
2022-11-26T04:14:40.749Z,55.80
2022-11-26T04:17:08.608Z,53.50
2022-11-26T04:19:36.554Z,53.13
2022-11-26T04:22:04.161Z,52.47
2022-11-26T04:24:32.717Z,49.67
2022-11-26T04:27:00.606Z,46.67
2022-11-26T04:29:29.147Z,50.53
2022-11-26T04:31:56.985Z,49.85
2022-11-26T04:34:25.362Z,51.78
2022-11-26T04:36:53.200Z,51.25
2022-11-26T04:39:21.946Z,50.30
2022-11-26T04:41:50.493Z,49.45
2022-11-26T04:44:18.862Z,48.70
2022-11-26T04:46:46.955Z,47.17
2022-11-26T04:49:15.719Z,47.00
2022-11-26T04:51:44.146Z,48.75
2022-11-26T04:54:13.317Z,47.28
2022-11-26T04:56:41.486Z,46.05
2022-11-26T04:59:09.714Z,46.33
2022-11-26T05:01:37.891Z,41.30
2022-11-26T05:04:05.907Z,40.47
2022-11-26T05:06:34.129Z,41.88
2022-11-26T05:09:02.521Z,39.00
2022-11-26T05:11:30.636Z,38.63
2022-11-26T05:13:58.796Z,35.58
2022-11-26T05:16:26.698Z,37.70
2022-11-26T05:18:54.841Z,38.42
2022-11-26T05:21:22.682Z,36.22
2022-11-26T05:23:51.222Z,37.40
2022-11-26T05:26:18.826Z,37.22
2022-11-26T05:28:46.964Z,38.78
2022-11-26T05:31:15.425Z,36.30
2022-11-26T05:33:43.747Z,36.20
2022-11-26T05:36:11.757Z,38.38
2022-11-26T05:38:39.981Z,36.47
2022-11-26T05:41:08.276Z,33.17
2022-11-26T05:43:37.017Z,37.97
2022-11-26T05:46:06.990Z,34.88
2022-11-26T05:48:35.987Z,32.95
2022-11-26T05:51:04.182Z,35.50
2022-11-26T05:53:32.759Z,34.90
2022-11-26T05:56:00.568Z,35.30
2022-11-26T05:58:28.505Z,34.08
2022-11-26T06:00:56.534Z,36.30
2022-11-26T06:03:25.700Z,37.47
2022-11-26T06:05:54.266Z,36.35
2022-11-26T06:08:23.030Z,37.28
2022-11-26T06:10:50.882Z,35.15
2022-11-26T06:13:20.672Z,34.67
2022-11-26T06:15:48.650Z,34.25
2022-11-26T06:18:17.454Z,34.70
2022-11-26T06:20:45.963Z,35.88
2022-11-26T06:23:14.516Z,33.78
2022-11-26T06:25:43.126Z,34.35
2022-11-26T06:28:11.458Z,34.88
2022-11-26T06:30:39.165Z,34.33
2022-11-26T06:33:07.460Z,35.40
2022-11-26T06:35:35.581Z,35.45
2022-11-26T06:38:04.497Z,33.70
2022-11-26T06:40:32.377Z,34.15
2022-11-26T06:43:00.539Z,34.80
2022-11-26T06:45:28.327Z,33.15
2022-11-26T06:47:56.707Z,35.78
2022-11-26T06:50:24.716Z,35.00
2022-11-26T06:52:54.091Z,35.88
2022-11-26T06:55:22.022Z,36.05
2022-11-26T06:57:51.641Z,34.22
2022-11-26T07:00:20.249Z,36.15
2022-11-26T07:02:49.035Z,33.88
2022-11-26T07:05:17.666Z,35.22
2022-11-26T07:07:45.841Z,32.45
2022-11-26T07:10:14.031Z,33.78
2022-11-26T07:12:42.257Z,33.42
2022-11-26T07:15:10.899Z,33.45
2022-11-26T07:17:38.939Z,34.40
2022-11-26T07:20:07.470Z,34.65
2022-11-26T07:22:36.162Z,31.15
2022-11-26T07:25:08.122Z,31.33
2022-11-26T07:27:39.330Z,41.22
2022-11-26T07:30:08.091Z,45.67
2022-11-26T07:32:36.186Z,45.63
2022-11-26T07:35:05.535Z,47.42
2022-11-26T07:37:34.392Z,35.60
2022-11-26T07:40:02.252Z,37.33
2022-11-26T07:42:32.588Z,37.95
2022-11-26T07:45:01.225Z,31.60
2022-11-26T07:47:29.574Z,37.85
2022-11-26T07:49:57.714Z,34.90
2022-11-26T07:52:26.144Z,31.85
2022-11-26T07:54:54.069Z,28.60
2022-11-26T07:57:23.561Z,27.27
2022-11-26T07:59:51.601Z,26.73
2022-11-26T08:02:20.114Z,27.38
2022-11-26T08:04:48.851Z,25.23
2022-11-26T08:07:23.292Z,25.88
2022-11-26T08:09:55.795Z,23.10
2022-11-26T08:12:24.554Z,26.83
2022-11-26T08:14:52.345Z,42.55
2022-11-26T08:17:20.312Z,35.63
2022-11-26T08:19:48.117Z,32.10
2022-11-26T08:22:17.056Z,36.15
2022-11-26T08:24:45.248Z,28.08
2022-11-26T08:27:13.409Z,23.55
2022-11-26T08:29:41.577Z,24.00
2022-11-26T08:32:09.692Z,24.92
2022-11-26T08:34:38.335Z,23.70
2022-11-26T08:37:06.916Z,24.77
2022-11-26T08:39:35.989Z,25.30
2022-11-26T08:42:04.240Z,37.63
2022-11-26T08:44:32.322Z,49.88
2022-11-26T08:47:00.692Z,36.03
2022-11-26T08:49:28.637Z,38.83
2022-11-26T08:51:57.776Z,23.58
2022-11-26T08:54:25.585Z,30.38
2022-11-26T08:56:55.208Z,38.78
2022-11-26T08:59:24.727Z,27.63
2022-11-26T09:01:52.948Z,33.58
2022-11-26T09:04:21.208Z,34.45
2022-11-26T09:06:50.547Z,46.92
2022-11-26T09:09:18.581Z,23.75
2022-11-26T09:11:54.291Z,47.13
2022-11-26T09:14:25.959Z,49.60
2022-11-26T09:16:55.629Z,44.25
2022-11-26T09:19:24.875Z,37.25
2022-11-26T09:21:53.172Z,25.17
2022-11-26T09:24:21.714Z,23.83
2022-11-26T09:26:50.318Z,25.23
2022-11-26T09:29:20.482Z,25.23
2022-11-26T09:32:21.199Z,26.00
2022-11-26T09:34:38.535Z,22.33
2022-11-26T09:37:06.901Z,25.42
2022-11-26T09:39:34.820Z,24.95
2022-11-26T09:42:12.133Z,30.83
2022-11-26T09:45:01.756Z,37.88
2022-11-26T09:47:45.965Z,41.45
2022-11-26T09:50:13.818Z,26.08
2022-11-26T09:52:43.651Z,25.38
2022-11-26T09:55:22.013Z,25.48
2022-11-26T09:57:53.813Z,26.30
2022-11-26T10:00:28.437Z,24.73
2022-11-26T10:02:58.427Z,26.38
2022-11-26T10:06:07.781Z,33.88
2022-11-26T10:09:14.014Z,25.58
2022-11-26T10:12:07.442Z,33.20
2022-11-26T10:14:53.061Z,27.55
2022-11-26T10:17:36.813Z,26.20
2022-11-26T10:20:35.861Z,27.50
2022-11-26T10:23:18.021Z,27.70
2022-11-26T10:26:05.785Z,27.77
2022-11-26T10:28:57.838Z,26.35
2022-11-26T10:31:28.506Z,29.65
2022-11-26T10:34:00.299Z,26.70
2022-11-26T10:36:42.898Z,25.55
2022-11-26T10:39:17.261Z,27.02
2022-11-26T10:41:45.866Z,32.72
2022-11-26T10:44:41.257Z,36.25
2022-11-26T10:47:21.927Z,34.38
2022-11-26T10:49:54.910Z,34.90
2022-11-26T10:52:26.509Z,30.02
2022-11-26T10:55:08.652Z,34.17
2022-11-26T10:57:44.293Z,24.30
2022-11-26T11:00:28.957Z,25.70
2022-11-26T11:02:58.485Z,27.13
2022-11-26T11:05:26.736Z,27.55
2022-11-26T11:07:55.248Z,24.25
2022-11-26T11:10:24.820Z,27.90
2022-11-26T11:13:13.203Z,25.90
2022-11-26T11:15:41.790Z,24.40
2022-11-26T11:18:13.327Z,24.52
2022-11-26T11:20:43.397Z,24.00
2022-11-26T11:23:11.959Z,24.40
2022-11-26T11:25:42.416Z,23.30
2022-11-26T11:28:13.887Z,25.45
2022-11-26T11:30:43.559Z,25.48
2022-11-26T11:33:15.210Z,25.25
2022-11-26T11:35:43.135Z,27.50
2022-11-26T11:38:25.972Z,26.30
2022-11-26T11:40:53.673Z,25.77
2022-11-26T11:43:27.145Z,26.13
2022-11-26T11:46:14.721Z,24.38
2022-11-26T11:49:00.176Z,27.27
2022-11-26T11:52:05.542Z,24.83
2022-11-26T11:55:03.041Z,25.95
2022-11-26T11:57:57.758Z,27.63
2022-11-26T12:00:52.668Z,24.75
2022-11-26T12:03:45.581Z,27.70
2022-11-26T12:06:40.718Z,27.25
2022-11-26T12:09:22.225Z,27.73
2022-11-26T12:11:50.951Z,28.58
2022-11-26T12:14:56.320Z,31.42
2022-11-26T12:18:04.422Z,24.70
2022-11-26T12:20:37.025Z,28.10
2022-11-26T12:23:24.836Z,29.48
2022-11-26T12:26:28.244Z,26.83
2022-11-26T12:29:23.525Z,27.58
2022-11-26T12:31:58.900Z,29.00
2022-11-26T12:34:30.697Z,27.35
2022-11-26T12:37:03.462Z,29.27
2022-11-26T12:39:43.521Z,29.30
2022-11-26T12:42:45.573Z,27.60
2022-11-26T12:45:32.601Z,30.27
2022-11-26T12:48:04.842Z,25.50
2022-11-26T12:53:22.616Z,25.88
2022-11-26T12:56:16.042Z,26.15
2022-11-26T12:58:59.592Z,26.17
2022-11-26T13:01:29.146Z,26.48
2022-11-26T13:04:21.693Z,27.13
2022-11-26T13:07:04.141Z,26.70
2022-11-26T13:09:56.957Z,26.90
2022-11-26T13:12:47.043Z,31.77
2022-11-26T13:15:20.365Z,28.13
2022-11-26T13:17:50.761Z,29.80
2022-11-26T13:20:40.709Z,28.27
2022-11-26T13:23:15.331Z,29.25
2022-11-26T13:25:55.456Z,25.67
2022-11-26T13:28:23.941Z,26.75
2022-11-26T13:31:22.164Z,29.83
2022-11-26T13:34:08.552Z,28.65
2022-11-26T13:37:14.368Z,27.73
2022-11-26T13:40:22.490Z,29.33
2022-11-26T13:43:19.006Z,29.23
2022-11-26T13:45:47.414Z,30.52
2022-11-26T13:48:27.084Z,27.42
2022-11-26T13:51:03.544Z,28.88
2022-11-26T13:53:36.761Z,30.02
2022-11-26T13:56:07.766Z,28.98
2022-11-26T13:58:46.034Z,25.65
2022-11-26T14:01:31.758Z,28.30
2022-11-26T14:04:00.490Z,27.75
2022-11-26T14:06:29.112Z,30.95
2022-11-26T14:08:57.736Z,28.33
2022-11-26T14:11:50.785Z,28.10
2022-11-26T14:14:27.597Z,38.45
2022-11-26T14:17:02.643Z,30.30
2022-11-26T14:19:42.757Z,27.55
2022-11-26T14:22:23.877Z,28.35
2022-11-26T14:24:52.213Z,27.95
2022-11-26T14:27:22.076Z,28.10
2022-11-26T14:30:08.180Z,27.73
2022-11-26T14:32:42.674Z,27.52
2022-11-26T14:35:22.998Z,28.63
2022-11-26T14:37:56.761Z,30.13
2022-11-26T14:40:31.218Z,28.10
2022-11-26T14:43:16.662Z,28.63
2022-11-26T14:45:49.364Z,29.02
2022-11-26T14:48:23.930Z,35.25
2022-11-26T14:50:53.720Z,32.33
2022-11-26T14:53:24.456Z,30.60
2022-11-26T14:55:52.887Z,39.42
2022-11-26T14:58:57.973Z,33.20
2022-11-26T15:01:29.621Z,28.77
2022-11-26T15:04:03.348Z,28.02
2022-11-26T15:06:38.724Z,31.73
2022-11-26T15:09:19.442Z,30.02
2022-11-26T15:12:05.861Z,29.33
2022-11-26T15:14:43.737Z,30.45
2022-11-26T15:17:14.443Z,29.35
2022-11-26T15:19:43.856Z,21.55
2022-11-26T15:22:39.424Z,29.60
2022-11-26T15:25:25.691Z,27.77
2022-11-26T15:28:00.233Z,28.23
2022-11-26T15:30:31.363Z,26.50
2022-11-26T15:33:08.353Z,26.83
2022-11-26T15:35:38.055Z,27.83
2022-11-26T15:38:20.752Z,25.77
2022-11-26T15:40:53.254Z,26.08
2022-11-26T15:43:31.266Z,24.50
2022-11-26T15:46:15.183Z,27.20
2022-11-26T15:48:52.400Z,26.33
2022-11-26T15:51:42.268Z,32.13
2022-11-26T15:54:49.606Z,31.77
2022-11-26T15:57:26.961Z,46.50
2022-11-26T16:00:01.930Z,41.38
2022-11-26T16:02:32.639Z,51.63
2022-11-26T16:05:02.837Z,32.78
2022-11-26T16:07:32.677Z,33.63
2022-11-26T16:10:24.619Z,32.95
2022-11-26T16:13:11.692Z,54.08
2022-11-26T16:16:00.534Z,27.25
2022-11-26T16:18:38.393Z,27.15
2022-11-26T16:21:24.653Z,27.23
2022-11-26T16:24:06.288Z,28.35
2022-11-26T16:27:01.566Z,22.35
2022-11-26T16:29:31.291Z,25.40
2022-11-26T16:31:59.761Z,24.42
2022-11-26T16:34:28.753Z,24.95
2022-11-26T16:37:04.894Z,25.95
2022-11-26T16:39:39.059Z,26.05
2022-11-26T16:42:24.272Z,23.65
2022-11-26T16:44:52.847Z,22.00
2022-11-26T16:47:23.919Z,22.10
2022-11-26T16:49:53.086Z,23.63
2022-11-26T16:52:21.723Z,26.52
2022-11-26T16:54:50.596Z,24.77
2022-11-26T16:57:22.188Z,21.50
2022-11-26T16:59:54.057Z,26.83
2022-11-26T17:02:23.771Z,24.27
2022-11-26T17:04:52.329Z,21.35
2022-11-26T17:07:28.803Z,26.17
2022-11-26T17:09:57.671Z,19.85
2022-11-26T17:12:26.250Z,21.90
2022-11-26T17:14:54.798Z,23.33
2022-11-26T17:17:25.633Z,21.27
2022-11-26T17:19:54.369Z,21.33
2022-11-26T17:22:22.194Z,20.35
2022-11-26T17:24:51.051Z,20.60
2022-11-26T17:27:21.534Z,19.75
2022-11-26T17:29:49.848Z,21.33
2022-11-26T17:32:20.192Z,24.13
2022-11-26T17:34:48.777Z,34.83
2022-11-26T17:37:23.203Z,30.40
2022-11-26T17:39:52.054Z,25.35
2022-11-26T17:42:20.391Z,30.23
2022-11-26T17:44:49.382Z,27.83
2022-11-26T17:47:19.668Z,32.95
2022-11-26T17:49:48.732Z,34.20
2022-11-26T17:52:16.959Z,26.92
2022-11-26T17:54:46.641Z,31.08
2022-11-26T17:57:16.103Z,30.92
2022-11-26T17:59:45.371Z,24.70
2022-11-26T18:02:13.542Z,24.08
2022-11-26T18:04:42.820Z,22.95
2022-11-26T18:07:18.506Z,23.10
2022-11-26T18:09:47.359Z,25.23
2022-11-26T18:12:24.403Z,26.20
2022-11-26T18:14:57.390Z,26.88
2022-11-26T18:17:25.910Z,25.47
2022-11-26T18:19:54.584Z,26.58
2022-11-26T18:22:24.536Z,24.67
2022-11-26T18:24:57.339Z,23.70
2022-11-26T18:27:27.759Z,23.88
2022-11-26T18:29:56.189Z,25.38
2022-11-26T18:32:24.111Z,24.45
2022-11-26T18:34:52.899Z,26.35
2022-11-26T18:37:20.743Z,25.65
2022-11-26T18:39:49.052Z,24.52
2022-11-26T18:45:07.037Z,25.40
2022-11-26T18:47:36.280Z,27.65
2022-11-26T18:50:05.030Z,30.95
2022-11-26T18:52:33.539Z,30.10
2022-11-26T18:55:05.209Z,30.52
2022-11-26T18:57:33.900Z,27.52
2022-11-26T19:00:01.830Z,30.23
2022-11-26T19:02:30.942Z,29.92
2022-11-26T19:04:58.908Z,30.08
2022-11-26T19:07:27.696Z,27.88
2022-11-26T19:09:55.661Z,28.63
2022-11-26T19:12:24.327Z,30.63
2022-11-26T19:14:52.035Z,28.92
2022-11-26T19:17:20.508Z,30.00
2022-11-26T19:19:48.853Z,28.52
2022-11-26T19:22:17.385Z,27.65
2022-11-26T19:24:45.269Z,27.88
2022-11-26T19:27:13.719Z,26.27
2022-11-26T19:29:42.548Z,26.80
2022-11-26T19:32:11.031Z,26.90
2022-11-26T19:34:39.704Z,27.90
2022-11-26T19:37:08.210Z,28.45
2022-11-26T19:39:36.123Z,30.35
2022-11-26T19:42:04.762Z,29.80
2022-11-26T19:44:34.584Z,29.40
2022-11-26T19:47:03.360Z,28.50
2022-11-26T19:49:31.061Z,28.42
2022-11-26T19:51:59.522Z,30.45
2022-11-26T19:54:27.276Z,28.10
2022-11-26T19:56:55.907Z,28.15
2022-11-26T19:59:23.782Z,33.97
2022-11-26T20:01:53.420Z,32.55
2022-11-26T20:04:21.975Z,30.50
2022-11-26T20:06:51.957Z,29.75
2022-11-26T20:09:21.419Z,29.40
2022-11-26T20:11:49.982Z,31.55
2022-11-26T20:14:19.768Z,33.33
2022-11-26T20:16:48.360Z,36.28
2022-11-26T20:19:18.637Z,32.10
2022-11-26T20:21:49.868Z,33.65
2022-11-26T20:24:18.825Z,31.45
2022-11-26T20:26:49.253Z,32.72
2022-11-26T20:29:19.189Z,39.13
2022-11-26T20:31:52.199Z,34.17
2022-11-26T20:34:22.752Z,34.40
2022-11-26T20:36:51.174Z,32.00
2022-11-26T20:39:21.829Z,33.65
2022-11-26T20:41:51.099Z,33.10
2022-11-26T20:44:19.247Z,32.38
2022-11-26T20:46:48.424Z,33.35
2022-11-26T20:49:16.562Z,36.40
2022-11-26T20:51:45.368Z,35.13
2022-11-26T20:54:14.016Z,34.55
2022-11-26T20:56:42.747Z,36.33
2022-11-26T20:59:10.950Z,36.28
2022-11-26T21:01:39.647Z,36.33
2022-11-26T21:04:08.494Z,38.92
2022-11-26T21:06:37.255Z,38.10
2022-11-26T21:09:07.733Z,37.40
2022-11-26T21:11:37.108Z,36.50
2022-11-26T21:14:07.585Z,34.35
2022-11-26T21:16:39.818Z,36.80
2022-11-26T21:19:13.553Z,37.10
2022-11-26T21:21:42.953Z,37.75
2022-11-26T21:24:11.667Z,38.72
2022-11-26T21:26:41.160Z,37.17
2022-11-26T21:29:09.286Z,44.58
2022-11-26T21:31:38.736Z,43.28
2022-11-26T21:34:08.277Z,50.85
2022-11-26T21:36:38.020Z,48.80
2022-11-26T21:39:06.856Z,38.38
2022-11-26T21:41:37.613Z,40.78
2022-11-26T21:44:06.040Z,40.63
2022-11-26T21:46:38.570Z,38.17
2022-11-26T21:49:08.468Z,39.92
2022-11-26T21:51:37.861Z,43.38
2022-11-26T21:54:05.957Z,43.10
2022-11-26T21:56:34.438Z,48.28
2022-11-26T21:59:02.640Z,42.83
2022-11-26T22:01:35.000Z,41.58
2022-11-26T22:04:09.310Z,53.47
2022-11-26T22:06:39.036Z,48.97
2022-11-26T22:09:07.929Z,52.80
2022-11-26T22:11:38.480Z,54.35
2022-11-26T22:14:07.172Z,38.50
2022-11-26T22:16:35.779Z,37.63
2022-11-26T22:19:04.578Z,36.85
2022-11-26T22:21:36.088Z,34.40
2022-11-26T22:24:05.200Z,34.40
2022-11-26T22:26:34.254Z,36.05
2022-11-26T22:29:02.586Z,35.35
2022-11-26T22:31:33.842Z,35.85
2022-11-26T22:34:12.595Z,36.10
2022-11-26T22:36:41.970Z,34.40
2022-11-26T22:39:15.577Z,36.17
2022-11-26T22:41:45.456Z,34.13
2022-11-26T22:44:14.174Z,33.75
2022-11-26T22:46:43.599Z,34.72
2022-11-26T22:49:13.743Z,36.95
2022-11-26T22:51:42.556Z,35.15
2022-11-26T22:54:12.903Z,35.78
2022-11-26T22:56:42.467Z,36.75
2022-11-26T22:59:14.042Z,35.03
2022-11-26T23:01:42.596Z,36.65
2022-11-26T23:04:11.533Z,34.70
2022-11-26T23:06:40.577Z,33.78
2022-11-26T23:09:10.907Z,35.90
2022-11-26T23:11:41.635Z,35.72
2022-11-26T23:14:12.368Z,36.03
2022-11-26T23:16:42.926Z,36.20
2022-11-26T23:19:14.607Z,36.47
2022-11-26T23:21:45.177Z,36.43
2022-11-26T23:24:14.805Z,34.50
2022-11-26T23:26:44.588Z,36.05
2022-11-26T23:29:13.313Z,35.88
2022-11-26T23:31:44.078Z,35.47
2022-11-26T23:34:13.016Z,35.47
2022-11-26T23:36:41.196Z,36.83
2022-11-26T23:39:12.700Z,36.97
2022-11-26T23:41:41.123Z,37.78
2022-11-26T23:44:09.687Z,36.10
2022-11-26T23:46:38.300Z,35.45
2022-11-26T23:49:06.359Z,35.58
2022-11-26T23:51:34.684Z,34.60
2022-11-26T23:54:02.870Z,37.13
2022-11-26T23:56:33.484Z,37.00
2022-11-26T23:59:03.571Z,37.13
